createdAt,value
2023-04-08T00:00:50.982Z,8.90
2023-04-08T00:03:18.022Z,12.02
2023-04-08T00:05:44.499Z,9.95
2023-04-08T00:08:10.904Z,9.13
2023-04-08T00:10:37.315Z,8.77
2023-04-08T00:13:03.817Z,9.70
2023-04-08T00:15:30.406Z,9.10
2023-04-08T00:17:56.955Z,9.23
2023-04-08T00:20:23.827Z,12.82
2023-04-08T00:22:50.304Z,10.20
2023-04-08T00:25:16.930Z,10.25
2023-04-08T00:27:43.360Z,10.55
2023-04-08T00:30:10.392Z,9.35
2023-04-08T00:35:04.407Z,11.63
2023-04-08T00:37:31.512Z,13.48
2023-04-08T00:39:58.057Z,12.05
2023-04-08T00:42:24.521Z,12.90
2023-04-08T00:44:50.986Z,11.95
2023-04-08T00:47:18.426Z,10.07
2023-04-08T00:49:45.028Z,11.57
2023-04-08T00:52:11.638Z,8.43
2023-04-08T00:54:38.629Z,8.43
2023-04-08T00:57:05.851Z,9.13
2023-04-08T00:59:32.939Z,8.70
2023-04-08T01:02:06.889Z,11.27
2023-04-08T01:04:46.290Z,12.88
2023-04-08T01:07:17.968Z,11.63
2023-04-08T01:09:46.182Z,9.73
2023-04-08T01:12:14.022Z,8.25
2023-04-08T01:14:42.681Z,11.60
2023-04-08T01:17:09.735Z,7.55
2023-04-08T01:19:38.620Z,8.88
2023-04-08T01:22:15.799Z,7.78
2023-04-08T01:24:43.985Z,7.43
2023-04-08T01:27:11.197Z,8.43
2023-04-08T01:29:37.694Z,8.35
2023-04-08T01:32:07.977Z,8.60
2023-04-08T01:34:34.822Z,8.80
2023-04-08T01:37:02.244Z,7.95
2023-04-08T01:41:56.235Z,9.88
2023-04-08T01:44:24.200Z,8.35
2023-04-08T01:46:51.232Z,7.88
2023-04-08T01:49:17.880Z,8.70
2023-04-08T01:51:45.232Z,7.97
2023-04-08T01:54:11.665Z,8.25
2023-04-08T01:56:41.140Z,6.82
2023-04-08T01:59:10.368Z,6.78
2023-04-08T02:01:37.182Z,8.38
2023-04-08T02:04:04.023Z,7.30
2023-04-08T02:06:31.156Z,5.97
2023-04-08T02:11:25.810Z,6.75
2023-04-08T02:13:52.922Z,6.55
2023-04-08T02:16:28.493Z,7.80
2023-04-08T02:19:15.551Z,7.47
2023-04-08T02:21:50.691Z,6.43
2023-04-08T02:24:17.726Z,6.43
2023-04-08T02:26:45.612Z,6.18
2023-04-08T02:29:12.771Z,8.30
2023-04-08T02:31:41.514Z,6.97
2023-04-08T02:34:09.664Z,8.25
2023-04-08T02:36:36.451Z,6.28
2023-04-08T02:39:03.617Z,5.95
2023-04-08T02:41:30.805Z,7.55
2023-04-08T02:43:57.489Z,7.60
2023-04-08T02:46:23.997Z,8.57
2023-04-08T02:48:50.971Z,9.45
2023-04-08T02:51:17.514Z,6.60
2023-04-08T02:53:43.970Z,7.05
2023-04-08T02:56:11.054Z,6.05
2023-04-08T02:58:37.547Z,7.28
2023-04-08T03:01:04.077Z,6.13
2023-04-08T03:03:31.330Z,8.48
2023-04-08T03:05:58.254Z,6.32
2023-04-08T03:08:24.677Z,6.25
2023-04-08T03:10:51.491Z,8.25
2023-04-08T03:13:17.929Z,7.03
2023-04-08T03:15:44.449Z,6.72
2023-04-08T03:18:11.416Z,7.60
2023-04-08T03:20:37.951Z,5.45
2023-04-08T03:23:04.486Z,6.13
2023-04-08T03:25:31.685Z,4.75
2023-04-08T03:27:58.324Z,5.20
2023-04-08T03:30:24.897Z,5.70
2023-04-08T03:32:51.641Z,6.03
2023-04-08T03:35:18.192Z,6.05
2023-04-08T03:37:44.692Z,6.53
2023-04-08T03:40:11.463Z,6.65
2023-04-08T03:42:37.992Z,6.13
2023-04-08T03:45:04.724Z,6.70
2023-04-08T03:47:31.218Z,4.93
2023-04-08T03:49:57.697Z,5.90
2023-04-08T03:52:24.895Z,5.95
2023-04-08T03:54:51.424Z,5.88
2023-04-08T03:57:17.936Z,5.78
2023-04-08T03:59:44.530Z,5.75
2023-04-08T04:02:11.081Z,6.00
2023-04-08T04:04:37.544Z,6.13
2023-04-08T04:07:04.036Z,6.20
2023-04-08T04:09:30.670Z,6.30
2023-04-08T04:11:57.125Z,6.30
2023-04-08T04:14:23.535Z,7.03
2023-04-08T04:16:49.981Z,5.78
2023-04-08T04:19:18.274Z,6.00
2023-04-08T04:21:44.723Z,6.07
2023-04-08T04:24:11.170Z,6.63
2023-04-08T04:26:37.634Z,6.95
2023-04-08T04:29:04.010Z,8.00
2023-04-08T04:31:30.726Z,12.82
2023-04-08T04:33:57.166Z,10.85
2023-04-08T04:36:23.610Z,7.95
2023-04-08T04:38:50.926Z,10.20
2023-04-08T04:41:17.591Z,7.93
2023-04-08T04:43:43.995Z,8.13
2023-04-08T04:46:10.859Z,8.48
2023-04-08T04:48:37.496Z,7.65
2023-04-08T04:51:04.052Z,9.15
2023-04-08T04:53:30.706Z,8.43
2023-04-08T04:55:57.148Z,7.72
2023-04-08T04:58:23.790Z,10.02
2023-04-08T05:00:50.387Z,9.00
2023-04-08T05:03:16.961Z,10.60
2023-04-08T05:05:43.737Z,8.55
2023-04-08T05:08:10.292Z,9.98
2023-04-08T05:10:36.729Z,8.20
2023-04-08T05:13:03.160Z,7.90
2023-04-08T05:15:29.594Z,9.93
2023-04-08T05:17:56.131Z,6.97
2023-04-08T05:20:22.575Z,7.82
2023-04-08T05:22:49.417Z,7.00
2023-04-08T05:25:15.885Z,8.38
2023-04-08T05:27:42.414Z,8.18
2023-04-08T05:30:09.827Z,7.60
2023-04-08T05:32:36.314Z,8.30
2023-04-08T05:35:06.284Z,7.47
2023-04-08T05:37:32.679Z,6.50
2023-04-08T05:39:59.173Z,7.03
2023-04-08T05:42:25.609Z,7.80
2023-04-08T05:44:52.024Z,7.22
2023-04-08T05:47:18.428Z,6.60
2023-04-08T05:49:44.879Z,7.07
2023-04-08T05:52:11.564Z,6.80
2023-04-08T05:54:38.027Z,6.93
2023-04-08T05:57:04.419Z,6.85
2023-04-08T05:59:31.118Z,7.20
2023-04-08T06:01:57.814Z,6.97
2023-04-08T06:04:24.674Z,7.57
2023-04-08T06:06:51.446Z,7.88
2023-04-08T06:09:17.929Z,8.13
2023-04-08T06:11:44.398Z,8.88
2023-04-08T06:14:10.942Z,8.43
2023-04-08T06:16:37.562Z,11.23
2023-04-08T06:19:04.026Z,9.55
2023-04-08T06:21:30.542Z,10.48
2023-04-08T06:23:57.022Z,10.30
2023-04-08T06:26:23.489Z,8.82
2023-04-08T06:28:50.178Z,10.20
2023-04-08T06:31:16.801Z,11.05
2023-04-08T06:33:43.378Z,10.30
2023-04-08T06:36:09.938Z,10.82
2023-04-08T06:38:36.587Z,16.40
2023-04-08T06:41:06.826Z,9.32
2023-04-08T06:43:33.902Z,10.38
2023-04-08T06:46:00.465Z,10.05
2023-04-08T06:48:29.221Z,11.63
2023-04-08T06:51:00.632Z,10.35
2023-04-08T06:53:29.387Z,10.85
2023-04-08T06:55:55.875Z,11.80
2023-04-08T06:58:23.497Z,13.13
2023-04-08T07:00:50.076Z,9.95
2023-04-08T07:03:16.665Z,7.97
2023-04-08T07:05:43.605Z,7.18
2023-04-08T07:08:10.089Z,7.78
2023-04-08T07:10:36.645Z,35.08
2023-04-08T07:13:03.338Z,10.32
2023-04-08T07:15:29.774Z,7.07
2023-04-08T07:17:57.183Z,7.25
2023-04-08T07:20:23.743Z,7.10
2023-04-08T07:22:50.382Z,6.25
2023-04-08T07:25:17.043Z,4.72
2023-04-08T07:27:43.586Z,5.05
2023-04-08T07:30:10.167Z,5.72
2023-04-08T07:32:37.218Z,6.90
2023-04-08T07:35:04.108Z,8.45
2023-04-08T07:37:30.661Z,10.40
2023-04-08T07:39:57.080Z,7.97
2023-04-08T07:42:23.667Z,7.65
2023-04-08T07:44:50.381Z,6.72
2023-04-08T07:47:16.856Z,6.93
2023-04-08T07:49:43.353Z,7.03
2023-04-08T07:52:09.763Z,6.53
2023-04-08T07:54:36.177Z,8.60
2023-04-08T07:57:02.705Z,6.65
2023-04-08T07:59:29.636Z,5.05
2023-04-08T08:01:56.485Z,5.72
2023-04-08T08:04:25.842Z,7.18
2023-04-08T08:06:52.482Z,6.10
2023-04-08T08:09:18.946Z,7.95
2023-04-08T08:11:45.417Z,5.90
2023-04-08T08:14:13.825Z,5.97
2023-04-08T08:16:40.326Z,6.63
2023-04-08T08:19:07.650Z,5.63
2023-04-08T08:21:36.926Z,6.22
2023-04-08T08:24:03.586Z,6.03
2023-04-08T08:26:29.995Z,5.97
2023-04-08T08:28:56.421Z,5.00
2023-04-08T08:31:22.854Z,5.05
2023-04-08T08:33:49.639Z,6.28
2023-04-08T08:36:16.348Z,5.63
2023-04-08T08:38:42.828Z,6.03
2023-04-08T08:41:09.254Z,5.25
2023-04-08T08:43:35.839Z,5.93
2023-04-08T08:46:02.356Z,5.82
2023-04-08T08:48:28.809Z,6.30
2023-04-08T08:50:55.263Z,5.78
2023-04-08T08:53:23.281Z,5.68
2023-04-08T08:56:16.484Z,4.90
2023-04-08T08:58:36.362Z,5.95
2023-04-08T09:01:02.840Z,4.70
2023-04-08T09:03:29.674Z,5.38
2023-04-08T09:08:43.405Z,5.85
2023-04-08T09:11:20.069Z,4.72
2023-04-08T09:13:46.657Z,3.97
2023-04-08T09:16:14.995Z,5.72
2023-04-08T09:18:44.502Z,5.07
2023-04-08T09:21:11.840Z,4.35
2023-04-08T09:26:09.459Z,3.90
2023-04-08T09:28:36.288Z,4.68
2023-04-08T09:31:17.784Z,4.13
2023-04-08T09:33:44.212Z,4.10
2023-04-08T09:36:10.716Z,4.07
2023-04-08T09:38:37.179Z,4.63
2023-04-08T09:41:06.855Z,5.05
2023-04-08T09:43:36.544Z,3.70
2023-04-08T09:46:06.065Z,4.63
2023-04-08T09:48:35.515Z,5.80
2023-04-08T09:51:02.329Z,3.92
2023-04-08T09:53:28.754Z,3.33
2023-04-08T09:55:56.168Z,3.53
2023-04-08T09:58:27.548Z,3.65
2023-04-08T10:00:54.367Z,3.13
2023-04-08T10:03:32.888Z,3.60
2023-04-08T10:06:01.415Z,3.88
2023-04-08T10:08:27.953Z,3.72
2023-04-08T10:10:55.093Z,3.33
2023-04-08T10:13:22.080Z,4.13
2023-04-08T10:15:49.131Z,4.70
2023-04-08T10:18:18.372Z,3.30
2023-04-08T10:20:45.557Z,3.33
2023-04-08T10:25:41.406Z,3.30
2023-04-08T10:28:13.627Z,4.22
2023-04-08T10:30:41.004Z,4.28
2023-04-08T10:33:15.186Z,4.70
2023-04-08T10:36:03.009Z,3.75
2023-04-08T10:38:29.556Z,4.15
2023-04-08T10:40:56.111Z,3.53
2023-04-08T10:43:24.125Z,3.47
2023-04-08T10:45:53.133Z,4.13
2023-04-08T10:48:20.729Z,3.75
2023-04-08T10:51:07.500Z,4.80
2023-04-08T10:53:35.484Z,4.50
2023-04-08T10:56:06.447Z,3.65
2023-04-08T10:58:33.573Z,3.45
2023-04-08T11:01:04.450Z,3.33
2023-04-08T11:03:33.642Z,4.75
2023-04-08T11:06:00.763Z,5.00
2023-04-08T11:08:31.104Z,3.40
2023-04-08T11:10:58.363Z,4.35
2023-04-08T11:13:25.868Z,3.70
2023-04-08T11:15:52.407Z,3.85
2023-04-08T11:18:19.098Z,3.30
2023-04-08T11:20:45.822Z,3.53
2023-04-08T11:23:15.292Z,3.17
2023-04-08T11:25:42.131Z,2.30
2023-04-08T11:28:08.815Z,3.30
2023-04-08T11:30:35.491Z,3.45
2023-04-08T11:33:02.020Z,3.75
2023-04-08T11:35:29.479Z,3.10
2023-04-08T11:37:56.458Z,2.95
2023-04-08T11:40:23.955Z,3.80
2023-04-08T11:42:51.151Z,3.53
2023-04-08T11:47:44.628Z,4.15
2023-04-08T11:52:48.398Z,3.25
2023-04-08T11:55:28.084Z,3.50
2023-04-08T11:57:55.320Z,3.15
2023-04-08T12:00:22.492Z,4.07
2023-04-08T12:02:49.261Z,4.32
2023-04-08T12:05:16.191Z,4.20
2023-04-08T12:07:43.028Z,4.25
2023-04-08T12:10:10.513Z,4.88
2023-04-08T12:12:37.291Z,3.35
2023-04-08T12:15:03.972Z,3.33
2023-04-08T12:17:30.596Z,4.32
2023-04-08T12:19:57.310Z,3.53
2023-04-08T12:22:23.926Z,4.10
2023-04-08T12:24:50.369Z,4.15
2023-04-08T12:27:16.844Z,3.17
2023-04-08T12:29:43.527Z,3.80
2023-04-08T12:32:10.030Z,4.18
2023-04-08T12:34:36.787Z,4.50
2023-04-08T12:37:03.411Z,2.78
2023-04-08T12:39:29.801Z,2.75
2023-04-08T12:41:56.985Z,2.47
2023-04-08T12:46:49.918Z,3.30
2023-04-08T12:49:16.573Z,3.95
2023-04-08T12:51:43.150Z,3.63
2023-04-08T12:54:09.576Z,4.32
2023-04-08T12:56:36.184Z,3.33
2023-04-08T12:59:02.720Z,2.92
2023-04-08T13:01:30.635Z,2.42
2023-04-08T13:03:57.540Z,3.05
2023-04-08T13:06:24.209Z,3.50
2023-04-08T13:08:50.836Z,3.65
2023-04-08T13:11:17.462Z,3.13
2023-04-08T13:13:44.795Z,3.97
2023-04-08T13:16:11.266Z,4.95
2023-04-08T13:18:37.789Z,5.20
2023-04-08T13:21:04.383Z,4.43
2023-04-08T13:23:30.786Z,4.75
2023-04-08T13:25:57.250Z,6.18
2023-04-08T13:28:23.685Z,5.20
2023-04-08T13:30:50.236Z,7.60
2023-04-08T13:33:17.258Z,6.57
2023-04-08T13:35:43.831Z,3.53
2023-04-08T13:38:10.313Z,4.60
2023-04-08T13:40:36.813Z,4.00
2023-04-08T13:43:03.440Z,6.60
2023-04-08T13:45:29.911Z,6.38
2023-04-08T13:47:56.897Z,9.63
2023-04-08T13:52:49.840Z,6.00
2023-04-08T13:55:16.701Z,8.70
2023-04-08T13:57:43.267Z,7.22
2023-04-08T14:00:10.732Z,9.00
2023-04-08T14:02:37.377Z,4.28
2023-04-08T14:05:04.470Z,4.03
2023-04-08T14:09:57.228Z,4.07
2023-04-08T14:12:23.802Z,3.15
2023-04-08T14:14:50.320Z,5.40
2023-04-08T14:17:16.902Z,18.15
2023-04-08T14:19:43.471Z,3.13
2023-04-08T14:22:09.932Z,4.90
2023-04-08T14:24:36.481Z,3.15
2023-04-08T14:27:03.613Z,2.60
2023-04-08T14:29:30.086Z,5.63
2023-04-08T14:31:56.802Z,5.28
2023-04-08T14:34:23.721Z,3.88
2023-04-08T14:36:50.163Z,3.10
2023-04-08T14:39:16.622Z,4.10
2023-04-08T14:41:43.092Z,2.65
2023-04-08T14:44:09.485Z,6.75
2023-04-08T14:46:36.055Z,2.92
2023-04-08T14:49:03.172Z,2.92
2023-04-08T14:51:31.512Z,3.00
2023-04-08T14:53:58.006Z,3.85
2023-04-08T14:56:24.470Z,3.25
2023-04-08T14:58:51.284Z,2.95
2023-04-08T15:01:17.979Z,3.92
2023-04-08T15:03:44.676Z,2.72
2023-04-08T15:06:16.752Z,2.13
2023-04-08T15:08:43.951Z,2.50
2023-04-08T15:13:36.759Z,2.65
2023-04-08T15:16:03.446Z,1.85
2023-04-08T15:18:30.278Z,3.72
2023-04-08T15:20:58.123Z,3.47
2023-04-08T15:23:24.616Z,2.53
2023-04-08T15:25:51.147Z,2.47
2023-04-08T15:28:17.553Z,3.70
2023-04-08T15:30:43.947Z,2.55
2023-04-08T15:33:10.480Z,2.10
2023-04-08T15:35:37.928Z,3.00
2023-04-08T15:38:04.560Z,3.55
2023-04-08T15:40:33.741Z,3.67
2023-04-08T15:43:00.322Z,2.88
2023-04-08T15:45:26.852Z,3.10
2023-04-08T15:47:53.403Z,3.75
2023-04-08T15:50:19.863Z,2.03
2023-04-08T15:52:46.359Z,3.90
2023-04-08T15:55:12.816Z,3.33
2023-04-08T15:57:39.346Z,2.83
2023-04-08T16:00:09.659Z,3.17
2023-04-08T16:02:39.655Z,3.60
2023-04-08T16:05:06.598Z,3.33
2023-04-08T16:07:33.028Z,4.40
2023-04-08T16:09:59.601Z,4.07
2023-04-08T16:12:26.129Z,4.32
2023-04-08T16:14:52.652Z,3.05
2023-04-08T16:17:19.162Z,3.15
2023-04-08T16:19:45.675Z,3.28
2023-04-08T16:22:12.195Z,4.03
2023-04-08T16:24:38.664Z,3.65
2023-04-08T16:27:05.480Z,3.78
2023-04-08T16:29:32.529Z,4.43
2023-04-08T16:31:58.974Z,4.68
2023-04-08T16:34:25.432Z,3.53
2023-04-08T16:36:51.934Z,4.20
2023-04-08T16:39:18.394Z,2.88
2023-04-08T16:41:45.159Z,3.22
2023-04-08T16:44:11.681Z,4.38
2023-04-08T16:46:38.356Z,4.07
2023-04-08T16:49:04.880Z,3.60
2023-04-08T16:51:31.273Z,4.00
2023-04-08T16:53:59.206Z,4.05
2023-04-08T16:56:27.055Z,5.15
2023-04-08T16:58:53.587Z,4.93
2023-04-08T17:01:20.771Z,3.75
2023-04-08T17:03:48.759Z,4.50
2023-04-08T17:06:15.351Z,4.75
2023-04-08T17:08:44.800Z,4.45
2023-04-08T17:11:13.126Z,4.47
2023-04-08T17:13:40.430Z,5.15
2023-04-08T17:18:33.751Z,5.18
2023-04-08T17:21:00.247Z,7.18
2023-04-08T17:23:27.110Z,5.50
2023-04-08T17:25:54.120Z,4.55
2023-04-08T17:28:20.979Z,5.35
2023-04-08T17:30:47.706Z,6.63
2023-04-08T17:33:14.776Z,5.95
2023-04-08T17:35:41.283Z,4.28
2023-04-08T17:38:07.882Z,5.80
2023-04-08T17:40:34.446Z,6.43
2023-04-08T17:43:01.595Z,6.45
2023-04-08T17:47:54.640Z,5.00
2023-04-08T17:50:21.113Z,5.80
2023-04-08T17:52:47.777Z,5.82
2023-04-08T17:55:14.274Z,5.78
2023-04-08T17:57:41.002Z,6.22
2023-04-08T18:00:08.201Z,5.05
2023-04-08T18:02:36.939Z,5.07
2023-04-08T18:05:04.169Z,5.00
2023-04-08T18:07:30.760Z,5.30
2023-04-08T18:09:57.180Z,4.35
2023-04-08T18:12:23.605Z,5.13
2023-04-08T18:14:50.104Z,5.57
2023-04-08T18:17:16.566Z,5.43
2023-04-08T18:19:43.024Z,6.88
2023-04-08T18:22:09.554Z,5.00
2023-04-08T18:24:37.198Z,4.38
2023-04-08T18:27:04.859Z,4.72
2023-04-08T18:29:31.841Z,5.53
2023-04-08T18:31:58.292Z,5.97
2023-04-08T18:34:25.340Z,4.95
2023-04-08T18:36:52.072Z,4.75
2023-04-08T18:39:18.800Z,4.72
2023-04-08T18:41:45.229Z,3.65
2023-04-08T18:44:12.012Z,5.28
2023-04-08T18:46:38.928Z,4.53
2023-04-08T18:49:05.564Z,4.90
2023-04-08T18:51:33.412Z,4.43
2023-04-08T18:53:59.877Z,5.10
2023-04-08T18:56:26.630Z,5.63
2023-04-08T18:58:54.725Z,5.75
2023-04-08T19:01:21.647Z,4.72
2023-04-08T19:03:48.226Z,4.53
2023-04-08T19:06:17.322Z,4.65
2023-04-08T19:08:43.796Z,4.57
2023-04-08T19:11:10.318Z,4.57
2023-04-08T19:13:37.061Z,4.85
2023-04-08T19:16:03.820Z,5.03
2023-04-08T19:18:30.385Z,4.30
2023-04-08T19:20:56.967Z,3.72
2023-04-08T19:23:23.453Z,4.75
2023-04-08T19:25:50.394Z,4.25
2023-04-08T19:28:16.867Z,4.47
2023-04-08T19:30:43.341Z,4.38
2023-04-08T19:33:09.885Z,4.82
2023-04-08T19:35:36.633Z,5.72
2023-04-08T19:38:03.508Z,4.38
2023-04-08T19:40:30.123Z,3.97
2023-04-08T19:42:56.577Z,4.05
2023-04-08T19:45:23.014Z,4.05
2023-04-08T19:47:49.487Z,4.35
2023-04-08T19:50:16.121Z,4.43
2023-04-08T19:52:42.626Z,3.80
2023-04-08T19:55:10.310Z,5.90
2023-04-08T19:57:37.134Z,5.32
2023-04-08T20:00:04.512Z,4.72
2023-04-08T20:02:33.209Z,4.18
2023-04-08T20:04:59.948Z,5.28
2023-04-08T20:07:26.483Z,3.88
2023-04-08T20:09:52.889Z,6.05
2023-04-08T20:12:19.360Z,4.43
2023-04-08T20:14:45.892Z,5.00
2023-04-08T20:17:12.640Z,4.78
2023-04-08T20:19:40.279Z,4.97
2023-04-08T20:22:07.074Z,5.03
2023-04-08T20:24:33.511Z,4.72
2023-04-08T20:27:00.234Z,4.80
2023-04-08T20:29:26.766Z,4.78
2023-04-08T20:31:53.358Z,5.18
2023-04-08T20:34:19.798Z,5.20
2023-04-08T20:36:46.558Z,5.30
2023-04-08T20:39:12.972Z,4.35
2023-04-08T20:41:39.517Z,5.20
2023-04-08T20:44:10.506Z,5.13
2023-04-08T20:46:37.857Z,4.63
2023-04-08T20:51:32.527Z,7.15
2023-04-08T20:53:59.125Z,4.93
2023-04-08T20:56:26.497Z,4.63
2023-04-08T21:01:19.841Z,5.40
2023-04-08T21:03:46.787Z,4.63
2023-04-08T21:06:19.694Z,4.90
2023-04-08T21:08:46.593Z,5.70
2023-04-08T21:11:13.546Z,5.07
2023-04-08T21:13:40.235Z,4.75
2023-04-08T21:16:07.003Z,4.82
2023-04-08T21:18:33.459Z,4.93
2023-04-08T21:20:59.973Z,4.90
2023-04-08T21:23:27.304Z,4.78
2023-04-08T21:25:53.699Z,5.63
2023-04-08T21:28:20.239Z,5.28
2023-04-08T21:30:46.733Z,8.18
2023-04-08T21:33:13.500Z,10.00
2023-04-08T21:35:40.089Z,6.22
2023-04-08T21:38:06.665Z,6.70
2023-04-08T21:40:33.118Z,5.93
2023-04-08T21:42:59.588Z,7.43
2023-04-08T21:45:26.017Z,6.95
2023-04-08T21:47:53.190Z,10.45
2023-04-08T21:50:20.106Z,7.25
2023-04-08T21:52:46.570Z,7.70
2023-04-08T21:55:13.181Z,7.18
2023-04-08T21:57:41.414Z,8.77
2023-04-08T22:00:13.145Z,9.27
2023-04-08T22:02:42.608Z,9.70
2023-04-08T22:05:09.496Z,9.50
2023-04-08T22:07:36.310Z,5.90
2023-04-08T22:10:02.790Z,8.57
2023-04-08T22:12:30.508Z,7.95
2023-04-08T22:14:57.291Z,5.55
2023-04-08T22:17:23.721Z,6.90
2023-04-08T22:19:50.316Z,11.00
2023-04-08T22:22:16.747Z,9.25
2023-04-08T22:24:43.377Z,7.18
2023-04-08T22:27:09.986Z,10.85
2023-04-08T22:29:36.464Z,21.55
2023-04-08T22:32:02.991Z,13.02
2023-04-08T22:34:29.412Z,8.68
2023-04-08T22:36:55.964Z,10.63
2023-04-08T22:39:22.412Z,15.73
2023-04-08T22:41:48.828Z,7.00
2023-04-08T22:44:15.778Z,8.50
2023-04-08T22:46:42.290Z,8.68
2023-04-08T22:49:08.778Z,7.95
2023-04-08T22:51:35.198Z,15.68
2023-04-08T22:54:01.636Z,12.48
2023-04-08T22:56:28.769Z,14.80
2023-04-08T22:58:55.170Z,10.35
2023-04-08T23:01:22.315Z,9.18
2023-04-08T23:06:16.223Z,12.55
2023-04-08T23:08:42.712Z,10.27
2023-04-08T23:11:09.152Z,13.35
2023-04-08T23:13:35.615Z,11.73
2023-04-08T23:16:02.324Z,11.25
2023-04-08T23:18:28.789Z,14.77
2023-04-08T23:20:55.674Z,33.15
2023-04-08T23:23:24.198Z,24.42
2023-04-08T23:25:50.978Z,28.25
2023-04-08T23:28:17.387Z,24.17
2023-04-08T23:30:43.920Z,25.23
2023-04-08T23:33:10.753Z,27.30
2023-04-08T23:35:38.950Z,28.13
2023-04-08T23:38:05.681Z,30.08
2023-04-08T23:40:32.083Z,26.85
2023-04-08T23:42:58.485Z,27.23
2023-04-08T23:45:24.900Z,28.15
2023-04-08T23:47:51.776Z,26.92
2023-04-08T23:50:20.157Z,26.13
2023-04-08T23:52:46.653Z,26.83
2023-04-08T23:55:13.067Z,25.20
2023-04-08T23:57:41.550Z,25.00
